sensor_id;sensor_type;location;lat;lon;timestamp;pressure;altitude;pressure_sealevel;temperature;humidity
37078;BME280;22989;55.998;37.212;2023-04-19T00:01:19;-11298.94;;;-145.39;34.67
37078;BME280;22989;55.998;37.212;2023-04-19T00:03:45;-11298.94;;;-145.39;34.79
37078;BME280;22989;55.998;37.212;2023-04-19T00:06:10;-11298.94;;;-145.39;34.70
37078;BME280;22989;55.998;37.212;2023-04-19T00:08:39;-11298.94;;;-145.39;34.75
37078;BME280;22989;55.998;37.212;2023-04-19T00:11:06;-11298.94;;;-145.39;34.75
37078;BME280;22989;55.998;37.212;2023-04-19T00:13:31;-11298.94;;;-145.39;34.66
37078;BME280;22989;55.998;37.212;2023-04-19T00:15:57;-11298.94;;;-145.39;34.62
37078;BME280;22989;55.998;37.212;2023-04-19T00:18:22;-11298.94;;;-145.39;34.63
37078;BME280;22989;55.998;37.212;2023-04-19T00:20:48;-11298.94;;;-145.39;34.57
37078;BME280;22989;55.998;37.212;2023-04-19T00:23:13;-11298.94;;;-145.39;34.70
37078;BME280;22989;55.998;37.212;2023-04-19T00:25:38;-11298.94;;;-145.39;34.57
37078;BME280;22989;55.998;37.212;2023-04-19T00:28:04;-11298.94;;;-145.39;34.72
37078;BME280;22989;55.998;37.212;2023-04-19T00:30:30;-11298.94;;;-145.39;34.60
37078;BME280;22989;55.998;37.212;2023-04-19T00:32:56;-11298.94;;;-145.39;34.61
37078;BME280;22989;55.998;37.212;2023-04-19T00:35:23;-11298.94;;;-145.39;34.51
37078;BME280;22989;55.998;37.212;2023-04-19T00:37:48;-11298.94;;;-145.39;34.56
37078;BME280;22989;55.998;37.212;2023-04-19T00:40:14;-11298.94;;;-145.39;34.46
37078;BME280;22989;55.998;37.212;2023-04-19T00:42:39;-11298.94;;;-145.39;34.47
37078;BME280;22989;55.998;37.212;2023-04-19T00:45:05;-11298.94;;;-145.39;34.61
37078;BME280;22989;55.998;37.212;2023-04-19T00:47:30;-11298.94;;;-145.39;34.59
37078;BME280;22989;55.998;37.212;2023-04-19T00:49:56;-11298.94;;;-145.39;34.57
37078;BME280;22989;55.998;37.212;2023-04-19T00:52:21;-11298.94;;;-145.39;34.52
37078;BME280;22989;55.998;37.212;2023-04-19T00:54:47;-11298.94;;;-145.39;34.54
37078;BME280;22989;55.998;37.212;2023-04-19T00:57:13;-11298.94;;;-145.39;34.52
37078;BME280;22989;55.998;37.212;2023-04-19T00:59:39;-11298.94;;;-145.39;34.47
37078;BME280;22989;55.998;37.212;2023-04-19T01:02:06;-11298.94;;;-145.39;34.47
37078;BME280;22989;55.998;37.212;2023-04-19T01:04:31;-11298.94;;;-145.39;34.47
37078;BME280;22989;55.998;37.212;2023-04-19T01:06:57;-11298.94;;;-145.39;34.57
37078;BME280;22989;55.998;37.212;2023-04-19T01:09:22;-11298.94;;;-145.39;34.62
37078;BME280;22989;55.998;37.212;2023-04-19T01:11:48;-11298.94;;;-145.39;34.48
37078;BME280;22989;55.998;37.212;2023-04-19T01:14:14;-11298.94;;;-145.39;34.66
37078;BME280;22989;55.998;37.212;2023-04-19T01:16:39;-11298.94;;;-145.39;34.59
37078;BME280;22989;55.998;37.212;2023-04-19T01:19:05;-11298.94;;;-145.39;34.54
37078;BME280;22989;55.998;37.212;2023-04-19T01:21:30;-11298.94;;;-145.39;34.52
37078;BME280;22989;55.998;37.212;2023-04-19T01:23:56;-11298.94;;;-145.39;34.46
37078;BME280;22989;55.998;37.212;2023-04-19T01:26:22;-11298.94;;;-145.39;34.62
37078;BME280;22989;55.998;37.212;2023-04-19T01:28:47;-11298.94;;;-145.39;34.22
37078;BME280;22989;55.998;37.212;2023-04-19T01:31:14;-11298.94;;;-145.39;34.40
37078;BME280;22989;55.998;37.212;2023-04-19T01:33:40;-11298.94;;;-145.39;34.35
37078;BME280;22989;55.998;37.212;2023-04-19T01:36:07;-11298.94;;;-145.39;34.25
37078;BME280;22989;55.998;37.212;2023-04-19T01:38:33;-11298.94;;;-145.39;34.24
37078;BME280;22989;55.998;37.212;2023-04-19T01:41:00;-11298.94;;;-145.39;34.17
37078;BME280;22989;55.998;37.212;2023-04-19T01:43:25;-11298.94;;;-145.39;34.01
37078;BME280;22989;55.998;37.212;2023-04-19T01:45:51;-11298.94;;;-145.39;34.14
37078;BME280;22989;55.998;37.212;2023-04-19T01:48:18;-11298.94;;;-145.39;34.08
37078;BME280;22989;55.998;37.212;2023-04-19T01:50:43;-11298.94;;;-145.39;33.90
37078;BME280;22989;55.998;37.212;2023-04-19T01:53:09;-11298.94;;;-145.39;33.83
37078;BME280;22989;55.998;37.212;2023-04-19T01:55:34;-11298.94;;;-145.39;33.91
37078;BME280;22989;55.998;37.212;2023-04-19T01:58:00;-11298.94;;;-145.39;34.03
37078;BME280;22989;55.998;37.212;2023-04-19T02:00:26;-11298.94;;;-145.39;33.98
37078;BME280;22989;55.998;37.212;2023-04-19T02:02:52;-11298.94;;;-145.39;34.02
37078;BME280;22989;55.998;37.212;2023-04-19T02:05:18;-11298.94;;;-145.39;34.07
37078;BME280;22989;55.998;37.212;2023-04-19T02:07:43;-11298.94;;;-145.39;34.00
37078;BME280;22989;55.998;37.212;2023-04-19T02:10:09;-11298.94;;;-145.39;34.08
37078;BME280;22989;55.998;37.212;2023-04-19T02:12:39;-11298.94;;;-145.39;34.04
37078;BME280;22989;55.998;37.212;2023-04-19T02:15:05;-11298.94;;;-145.39;33.97
37078;BME280;22989;55.998;37.212;2023-04-19T02:17:33;-11298.94;;;-145.39;34.20
37078;BME280;22989;55.998;37.212;2023-04-19T02:19:59;-11298.94;;;-145.39;34.24
37078;BME280;22989;55.998;37.212;2023-04-19T02:22:25;-11298.94;;;-145.39;34.22
37078;BME280;22989;55.998;37.212;2023-04-19T02:24:51;-11298.94;;;-145.39;34.31
37078;BME280;22989;55.998;37.212;2023-04-19T02:27:16;-11298.94;;;-145.39;34.28
37078;BME280;22989;55.998;37.212;2023-04-19T02:29:42;-11298.94;;;-145.39;34.27
37078;BME280;22989;55.998;37.212;2023-04-19T02:32:08;-11298.94;;;-145.39;34.32
37078;BME280;22989;55.998;37.212;2023-04-19T02:34:36;-11298.94;;;-145.39;34.42
37078;BME280;22989;55.998;37.212;2023-04-19T02:37:02;-11298.94;;;-145.39;34.40
37078;BME280;22989;55.998;37.212;2023-04-19T02:39:27;-11298.94;;;-145.39;34.52
37078;BME280;22989;55.998;37.212;2023-04-19T02:41:53;-11298.94;;;-145.39;34.45
37078;BME280;22989;55.998;37.212;2023-04-19T02:44:19;-11298.94;;;-145.39;34.42
37078;BME280;22989;55.998;37.212;2023-04-19T02:46:51;-11298.94;;;-145.39;34.48
37078;BME280;22989;55.998;37.212;2023-04-19T02:49:16;-11298.94;;;-145.39;34.50
37078;BME280;22989;55.998;37.212;2023-04-19T02:51:42;-11298.94;;;-145.39;34.52
37078;BME280;22989;55.998;37.212;2023-04-19T02:54:10;-11298.94;;;-145.39;34.53
37078;BME280;22989;55.998;37.212;2023-04-19T02:56:35;-11298.94;;;-145.39;34.61
37078;BME280;22989;55.998;37.212;2023-04-19T02:59:01;-11298.94;;;-145.39;34.74
37078;BME280;22989;55.998;37.212;2023-04-19T03:01:28;-11298.94;;;-145.39;34.59
37078;BME280;22989;55.998;37.212;2023-04-19T03:03:53;-11298.94;;;-145.39;34.59
37078;BME280;22989;55.998;37.212;2023-04-19T03:06:19;-11298.94;;;-145.39;34.68
37078;BME280;22989;55.998;37.212;2023-04-19T03:08:44;-11298.94;;;-145.39;34.70
37078;BME280;22989;55.998;37.212;2023-04-19T03:11:10;-11298.94;;;-145.39;34.82
37078;BME280;22989;55.998;37.212;2023-04-19T03:13:36;-11298.94;;;-145.39;34.79
37078;BME280;22989;55.998;37.212;2023-04-19T03:16:02;-11298.94;;;-145.39;34.74
37078;BME280;22989;55.998;37.212;2023-04-19T03:18:30;-11298.94;;;-145.39;34.71
37078;BME280;22989;55.998;37.212;2023-04-19T03:20:56;-11298.94;;;-145.39;34.68
37078;BME280;22989;55.998;37.212;2023-04-19T03:23:22;-11298.94;;;-145.39;34.64
37078;BME280;22989;55.998;37.212;2023-04-19T03:25:49;-11298.94;;;-145.39;34.71
37078;BME280;22989;55.998;37.212;2023-04-19T03:28:41;-11298.94;;;-145.39;34.78
37078;BME280;22989;55.998;37.212;2023-04-19T03:31:27;-11298.94;;;-145.39;34.68
37078;BME280;22989;55.998;37.212;2023-04-19T03:33:52;-11298.94;;;-145.39;34.77
37078;BME280;22989;55.998;37.212;2023-04-19T03:36:22;-11298.94;;;-145.39;34.81
37078;BME280;22989;55.998;37.212;2023-04-19T03:38:48;-11298.94;;;-145.39;34.77
37078;BME280;22989;55.998;37.212;2023-04-19T03:41:21;-11298.94;;;-145.39;34.86
37078;BME280;22989;55.998;37.212;2023-04-19T03:43:51;-11298.94;;;-145.39;34.89
37078;BME280;22989;55.998;37.212;2023-04-19T03:46:17;-11298.94;;;-145.39;34.97
37078;BME280;22989;55.998;37.212;2023-04-19T03:48:43;-11298.94;;;-145.39;35.08
37078;BME280;22989;55.998;37.212;2023-04-19T03:51:08;-11298.94;;;-145.39;34.90
37078;BME280;22989;55.998;37.212;2023-04-19T03:53:34;-11298.94;;;-145.39;34.90
37078;BME280;22989;55.998;37.212;2023-04-19T03:56:00;-11298.94;;;-145.39;34.92
37078;BME280;22989;55.998;37.212;2023-04-19T03:58:27;-11298.94;;;-145.39;35.04
37078;BME280;22989;55.998;37.212;2023-04-19T04:00:59;-11298.94;;;-145.39;35.15
37078;BME280;22989;55.998;37.212;2023-04-19T04:03:25;-11298.94;;;-145.39;35.05
37078;BME280;22989;55.998;37.212;2023-04-19T04:05:51;-11298.94;;;-145.39;35.09
37078;BME280;22989;55.998;37.212;2023-04-19T04:08:17;-11298.94;;;-145.39;34.95
37078;BME280;22989;55.998;37.212;2023-04-19T04:10:42;-11298.94;;;-145.39;34.98
37078;BME280;22989;55.998;37.212;2023-04-19T04:13:08;-11298.94;;;-145.39;34.92
37078;BME280;22989;55.998;37.212;2023-04-19T04:15:41;-11298.94;;;-145.39;34.95
37078;BME280;22989;55.998;37.212;2023-04-19T04:18:10;-11298.94;;;-145.39;34.93
37078;BME280;22989;55.998;37.212;2023-04-19T04:20:35;-11298.94;;;-145.39;34.81
37078;BME280;22989;55.998;37.212;2023-04-19T04:23:05;-11298.94;;;-145.39;34.77
37078;BME280;22989;55.998;37.212;2023-04-19T04:25:32;-11298.94;;;-145.39;34.59
37078;BME280;22989;55.998;37.212;2023-04-19T04:28:04;-11298.94;;;-145.39;34.44
37078;BME280;22989;55.998;37.212;2023-04-19T04:30:30;-11298.94;;;-145.39;34.47
37078;BME280;22989;55.998;37.212;2023-04-19T04:32:57;-11298.94;;;-145.39;34.33
37078;BME280;22989;55.998;37.212;2023-04-19T04:35:23;-11298.94;;;-145.39;34.36
37078;BME280;22989;55.998;37.212;2023-04-19T04:37:55;-11298.94;;;-145.39;34.20
37078;BME280;22989;55.998;37.212;2023-04-19T04:40:21;-11298.94;;;-145.39;34.07
37078;BME280;22989;55.998;37.212;2023-04-19T04:42:46;-11298.94;;;-145.39;33.91
37078;BME280;22989;55.998;37.212;2023-04-19T04:45:12;-11298.94;;;-145.39;33.82
37078;BME280;22989;55.998;37.212;2023-04-19T04:47:40;-11298.94;;;-145.39;33.63
37078;BME280;22989;55.998;37.212;2023-04-19T04:50:06;-11298.94;;;-145.39;33.60
37078;BME280;22989;55.998;37.212;2023-04-19T04:52:32;-11298.94;;;-145.39;33.40
37078;BME280;22989;55.998;37.212;2023-04-19T04:55:10;-11298.94;;;-145.39;33.18
37078;BME280;22989;55.998;37.212;2023-04-19T04:57:41;-11298.94;;;-145.39;33.08
37078;BME280;22989;55.998;37.212;2023-04-19T05:00:10;-11298.94;;;-145.39;32.88
37078;BME280;22989;55.998;37.212;2023-04-19T05:02:45;-11298.94;;;-145.39;32.94
37078;BME280;22989;55.998;37.212;2023-04-19T05:05:10;-11298.94;;;-145.39;32.61
37078;BME280;22989;55.998;37.212;2023-04-19T05:07:36;-11298.94;;;-145.39;32.60
37078;BME280;22989;55.998;37.212;2023-04-19T05:10:01;-11298.94;;;-145.39;32.48
37078;BME280;22989;55.998;37.212;2023-04-19T05:12:35;-11298.94;;;-145.39;32.29
37078;BME280;22989;55.998;37.212;2023-04-19T05:15:00;-11298.94;;;-145.39;32.28
37078;BME280;22989;55.998;37.212;2023-04-19T05:17:26;-11298.94;;;-145.39;32.13
37078;BME280;22989;55.998;37.212;2023-04-19T05:19:51;-11298.94;;;-145.39;31.84
37078;BME280;22989;55.998;37.212;2023-04-19T05:22:18;-11298.94;;;-145.39;31.40
37078;BME280;22989;55.998;37.212;2023-04-19T05:24:44;-11298.94;;;-145.39;31.14
37078;BME280;22989;55.998;37.212;2023-04-19T05:27:10;-11298.94;;;-145.39;30.83
37078;BME280;22989;55.998;37.212;2023-04-19T05:29:35;-11298.94;;;-145.39;30.86
37078;BME280;22989;55.998;37.212;2023-04-19T05:32:02;-11298.94;;;-145.39;30.53
37078;BME280;22989;55.998;37.212;2023-04-19T05:34:31;-11298.94;;;-145.39;30.08
37078;BME280;22989;55.998;37.212;2023-04-19T05:36:59;-11298.94;;;-145.39;30.11
37078;BME280;22989;55.998;37.212;2023-04-19T05:39:25;-11298.94;;;-145.39;30.11
37078;BME280;22989;55.998;37.212;2023-04-19T05:41:50;-11298.94;;;-145.39;29.61
37078;BME280;22989;55.998;37.212;2023-04-19T05:44:16;-11298.94;;;-145.39;29.52
37078;BME280;22989;55.998;37.212;2023-04-19T05:46:41;-11298.94;;;-145.39;28.87
37078;BME280;22989;55.998;37.212;2023-04-19T05:49:09;-11298.94;;;-145.39;28.63
37078;BME280;22989;55.998;37.212;2023-04-19T05:51:58;-11298.94;;;-145.39;27.13
37078;BME280;22989;55.998;37.212;2023-04-19T05:54:46;-11298.94;;;-145.39;26.18
37078;BME280;22989;55.998;37.212;2023-04-19T05:57:12;-11298.94;;;-145.39;25.79
37078;BME280;22989;55.998;37.212;2023-04-19T05:59:38;-11298.94;;;-145.39;25.35
37078;BME280;22989;55.998;37.212;2023-04-19T06:02:03;-11298.94;;;-145.39;24.42
37078;BME280;22989;55.998;37.212;2023-04-19T06:04:29;-11298.94;;;-145.39;24.38
37078;BME280;22989;55.998;37.212;2023-04-19T06:06:55;-11298.94;;;-145.39;24.70
37078;BME280;22989;55.998;37.212;2023-04-19T06:09:20;-11298.94;;;-145.39;24.44
37078;BME280;22989;55.998;37.212;2023-04-19T06:11:46;-11298.94;;;-145.39;24.39
37078;BME280;22989;55.998;37.212;2023-04-19T06:14:12;-11298.94;;;-145.39;23.79
37078;BME280;22989;55.998;37.212;2023-04-19T06:16:38;-11298.94;;;-145.39;23.66
37078;BME280;22989;55.998;37.212;2023-04-19T06:19:04;-11298.94;;;-145.39;23.77
37078;BME280;22989;55.998;37.212;2023-04-19T06:21:30;-11298.94;;;-145.39;24.12
37078;BME280;22989;55.998;37.212;2023-04-19T06:23:55;-11298.94;;;-145.39;24.04
37078;BME280;22989;55.998;37.212;2023-04-19T06:26:21;-11298.94;;;-145.39;24.80
37078;BME280;22989;55.998;37.212;2023-04-19T06:28:46;-11298.94;;;-145.39;25.64
37078;BME280;22989;55.998;37.212;2023-04-19T06:31:12;-11298.94;;;-145.39;26.15
37078;BME280;22989;55.998;37.212;2023-04-19T06:33:37;-11298.94;;;-145.39;26.73
37078;BME280;22989;55.998;37.212;2023-04-19T06:36:03;-11298.94;;;-145.39;27.50
37078;BME280;22989;55.998;37.212;2023-04-19T06:38:28;-11298.94;;;-145.39;27.60
37078;BME280;22989;55.998;37.212;2023-04-19T06:40:54;-11298.94;;;-145.39;28.09
37078;BME280;22989;55.998;37.212;2023-04-19T06:43:19;-11298.94;;;-145.39;27.73
37078;BME280;22989;55.998;37.212;2023-04-19T06:45:45;-11298.94;;;-145.39;27.65
37078;BME280;22989;55.998;37.212;2023-04-19T06:48:11;-11298.94;;;-145.39;27.47
37078;BME280;22989;55.998;37.212;2023-04-19T06:50:36;-11298.94;;;-145.39;26.98
37078;BME280;22989;55.998;37.212;2023-04-19T06:53:02;-11298.94;;;-145.39;26.34
37078;BME280;22989;55.998;37.212;2023-04-19T06:55:27;-11298.94;;;-145.39;26.58
37078;BME280;22989;55.998;37.212;2023-04-19T06:57:52;-11298.94;;;-145.39;27.08
37078;BME280;22989;55.998;37.212;2023-04-19T07:00:18;-11298.94;;;-145.39;26.67
37078;BME280;22989;55.998;37.212;2023-04-19T07:02:43;-11298.94;;;-145.39;25.68
37078;BME280;22989;55.998;37.212;2023-04-19T07:05:09;-11298.94;;;-145.39;25.12
37078;BME280;22989;55.998;37.212;2023-04-19T07:07:36;-11298.94;;;-145.39;24.86
37078;BME280;22989;55.998;37.212;2023-04-19T07:10:02;-11298.94;;;-145.39;24.69
37078;BME280;22989;55.998;37.212;2023-04-19T07:12:28;-11298.94;;;-145.39;25.07
37078;BME280;22989;55.998;37.212;2023-04-19T07:14:53;-11298.94;;;-145.39;24.72
37078;BME280;22989;55.998;37.212;2023-04-19T07:17:24;-11298.94;;;-145.39;24.38
37078;BME280;22989;55.998;37.212;2023-04-19T07:19:49;-11298.94;;;-145.39;24.20
37078;BME280;22989;55.998;37.212;2023-04-19T07:22:15;-11298.94;;;-145.39;24.23
37078;BME280;22989;55.998;37.212;2023-04-19T07:24:40;-11298.94;;;-145.39;23.68
37078;BME280;22989;55.998;37.212;2023-04-19T07:27:07;-11298.94;;;-145.39;23.66
37078;BME280;22989;55.998;37.212;2023-04-19T07:29:35;-11298.94;;;-145.39;23.27
37078;BME280;22989;55.998;37.212;2023-04-19T07:32:01;-11298.94;;;-145.39;23.46
37078;BME280;22989;55.998;37.212;2023-04-19T07:34:26;-11298.94;;;-145.39;23.33
37078;BME280;22989;55.998;37.212;2023-04-19T07:36:52;-11298.94;;;-145.39;23.59
37078;BME280;22989;55.998;37.212;2023-04-19T07:39:17;-11298.94;;;-145.39;23.83
37078;BME280;22989;55.998;37.212;2023-04-19T07:41:43;-11298.94;;;-145.39;24.04
37078;BME280;22989;55.998;37.212;2023-04-19T07:44:09;-11298.94;;;-145.39;23.72
37078;BME280;22989;55.998;37.212;2023-04-19T07:46:36;-11298.94;;;-145.39;23.69
37078;BME280;22989;55.998;37.212;2023-04-19T07:49:01;-11298.94;;;-145.39;23.66
37078;BME280;22989;55.998;37.212;2023-04-19T07:51:27;-11298.94;;;-145.39;24.24
37078;BME280;22989;55.998;37.212;2023-04-19T07:53:53;-11298.94;;;-145.39;24.55
37078;BME280;22989;55.998;37.212;2023-04-19T07:56:18;-11298.94;;;-145.39;24.06
37078;BME280;22989;55.998;37.212;2023-04-19T07:58:44;-11298.94;;;-145.39;24.09
37078;BME280;22989;55.998;37.212;2023-04-19T08:01:10;-11298.94;;;-145.39;24.38
37078;BME280;22989;55.998;37.212;2023-04-19T08:03:35;-11298.94;;;-145.39;24.64
37078;BME280;22989;55.998;37.212;2023-04-19T08:06:05;-11298.94;;;-145.39;24.84
37078;BME280;22989;55.998;37.212;2023-04-19T08:08:32;-11298.94;;;-145.39;25.12
37078;BME280;22989;55.998;37.212;2023-04-19T08:10:57;-11298.94;;;-145.39;25.15
37078;BME280;22989;55.998;37.212;2023-04-19T08:13:23;-11298.94;;;-145.39;25.18
37078;BME280;22989;55.998;37.212;2023-04-19T08:15:48;-11298.94;;;-145.39;25.24
37078;BME280;22989;55.998;37.212;2023-04-19T08:18:14;-11298.94;;;-145.39;24.87
37078;BME280;22989;55.998;37.212;2023-04-19T08:20:39;-11298.94;;;-145.39;24.44
37078;BME280;22989;55.998;37.212;2023-04-19T08:23:08;-11298.94;;;-145.39;24.68
37078;BME280;22989;55.998;37.212;2023-04-19T08:25:33;-11298.94;;;-145.39;24.79
37078;BME280;22989;55.998;37.212;2023-04-19T08:28:00;-11298.94;;;-145.39;25.04
37078;BME280;22989;55.998;37.212;2023-04-19T08:30:25;-11298.94;;;-145.39;25.20
37078;BME280;22989;55.998;37.212;2023-04-19T08:32:51;-11298.94;;;-145.39;25.45
37078;BME280;22989;55.998;37.212;2023-04-19T08:35:16;-11298.94;;;-145.39;25.35
37078;BME280;22989;55.998;37.212;2023-04-19T08:37:42;-11298.94;;;-145.39;25.12
37078;BME280;22989;55.998;37.212;2023-04-19T08:40:07;-11298.94;;;-145.39;25.27
37078;BME280;22989;55.998;37.212;2023-04-19T08:42:34;-11298.94;;;-145.39;25.16
37078;BME280;22989;55.998;37.212;2023-04-19T08:45:00;-11298.94;;;-145.39;25.26
37078;BME280;22989;55.998;37.212;2023-04-19T08:47:31;-11298.94;;;-145.39;25.25
37078;BME280;22989;55.998;37.212;2023-04-19T08:49:57;-11298.94;;;-145.39;25.61
37078;BME280;22989;55.998;37.212;2023-04-19T08:52:24;-11298.94;;;-145.39;25.54
37078;BME280;22989;55.998;37.212;2023-04-19T08:54:50;-11298.94;;;-145.39;25.40
37078;BME280;22989;55.998;37.212;2023-04-19T08:57:16;-11298.94;;;-145.39;25.56
37078;BME280;22989;55.998;37.212;2023-04-19T08:59:41;-11298.94;;;-145.39;25.56
37078;BME280;22989;55.998;37.212;2023-04-19T09:02:09;-11298.94;;;-145.39;25.38
37078;BME280;22989;55.998;37.212;2023-04-19T09:04:35;-11298.94;;;-145.39;25.47
37078;BME280;22989;55.998;37.212;2023-04-19T09:07:01;-11298.94;;;-145.39;25.45
37078;BME280;22989;55.998;37.212;2023-04-19T09:09:27;-11298.94;;;-145.39;25.21
37078;BME280;22989;55.998;37.212;2023-04-19T09:11:53;-11298.94;;;-145.39;25.38
37078;BME280;22989;55.998;37.212;2023-04-19T09:14:19;-11298.94;;;-145.39;25.62
37078;BME280;22989;55.998;37.212;2023-04-19T09:16:45;-11298.94;;;-145.39;25.70
37078;BME280;22989;55.998;37.212;2023-04-19T09:19:10;-11298.94;;;-145.39;25.57
37078;BME280;22989;55.998;37.212;2023-04-19T09:21:36;-11298.94;;;-145.39;25.40
37078;BME280;22989;55.998;37.212;2023-04-19T09:24:02;-11298.94;;;-145.39;25.25
37078;BME280;22989;55.998;37.212;2023-04-19T09:26:28;-11298.94;;;-145.39;25.17
37078;BME280;22989;55.998;37.212;2023-04-19T09:28:54;-11298.94;;;-145.39;25.20
37078;BME280;22989;55.998;37.212;2023-04-19T09:31:20;-11298.94;;;-145.39;25.52
37078;BME280;22989;55.998;37.212;2023-04-19T09:33:45;-11298.94;;;-145.39;25.52
37078;BME280;22989;55.998;37.212;2023-04-19T09:36:11;-11298.94;;;-145.39;25.32
37078;BME280;22989;55.998;37.212;2023-04-19T09:38:51;-11298.94;;;-145.39;25.57
37078;BME280;22989;55.998;37.212;2023-04-19T09:41:16;-11298.94;;;-145.39;25.47
37078;BME280;22989;55.998;37.212;2023-04-19T09:43:42;-11298.94;;;-145.39;25.63
37078;BME280;22989;55.998;37.212;2023-04-19T09:46:07;-11298.94;;;-145.39;25.81
37078;BME280;22989;55.998;37.212;2023-04-19T09:48:33;-11298.94;;;-145.39;25.72
37078;BME280;22989;55.998;37.212;2023-04-19T09:51:00;-11298.94;;;-145.39;25.57
37078;BME280;22989;55.998;37.212;2023-04-19T09:53:26;-11298.94;;;-145.39;25.66
37078;BME280;22989;55.998;37.212;2023-04-19T09:55:52;-11298.94;;;-145.39;25.65
37078;BME280;22989;55.998;37.212;2023-04-19T09:58:18;-11298.94;;;-145.39;25.47
37078;BME280;22989;55.998;37.212;2023-04-19T10:00:44;-11298.94;;;-145.39;25.74
37078;BME280;22989;55.998;37.212;2023-04-19T10:03:11;-11298.94;;;-145.39;25.57
37078;BME280;22989;55.998;37.212;2023-04-19T10:05:37;-11298.94;;;-145.39;25.39
37078;BME280;22989;55.998;37.212;2023-04-19T10:08:06;-11298.94;;;-145.39;25.40
37078;BME280;22989;55.998;37.212;2023-04-19T10:10:31;-11298.94;;;-145.39;25.26
37078;BME280;22989;55.998;37.212;2023-04-19T10:12:57;-11298.94;;;-145.39;25.26
37078;BME280;22989;55.998;37.212;2023-04-19T10:15:23;-11298.94;;;-145.39;24.97
37078;BME280;22989;55.998;37.212;2023-04-19T10:17:49;-11298.94;;;-145.39;25.06
37078;BME280;22989;55.998;37.212;2023-04-19T10:20:17;-11298.94;;;-145.39;25.31
37078;BME280;22989;55.998;37.212;2023-04-19T10:22:44;-11298.94;;;-145.39;25.20
37078;BME280;22989;55.998;37.212;2023-04-19T10:25:13;-11298.94;;;-145.39;24.86
37078;BME280;22989;55.998;37.212;2023-04-19T10:27:40;-11298.94;;;-145.39;24.91
37078;BME280;22989;55.998;37.212;2023-04-19T10:32:43;-11298.94;;;-145.39;24.87
37078;BME280;22989;55.998;37.212;2023-04-19T10:40:53;-11298.94;;;-145.39;25.15
37078;BME280;22989;55.998;37.212;2023-04-19T10:43:22;-11298.94;;;-145.39;24.83
37078;BME280;22989;55.998;37.212;2023-04-19T10:45:48;-11298.94;;;-145.39;24.88
37078;BME280;22989;55.998;37.212;2023-04-19T10:53:50;-11298.94;;;-145.39;24.63
37078;BME280;22989;55.998;37.212;2023-04-19T10:56:17;-11298.94;;;-145.39;25.31
37078;BME280;22989;55.998;37.212;2023-04-19T11:04:04;-11298.94;;;-145.39;24.87
37078;BME280;22989;55.998;37.212;2023-04-19T11:06:30;-11298.94;;;-145.39;24.72
37078;BME280;22989;55.998;37.212;2023-04-19T11:08:55;-11298.94;;;-145.39;24.90
37078;BME280;22989;55.998;37.212;2023-04-19T11:11:21;-11298.94;;;-145.39;25.04
37078;BME280;22989;55.998;37.212;2023-04-19T11:13:47;-11298.94;;;-145.39;24.87
37078;BME280;22989;55.998;37.212;2023-04-19T11:16:13;-11298.94;;;-145.39;24.73
37078;BME280;22989;55.998;37.212;2023-04-19T11:18:38;-11298.94;;;-145.39;24.92
37078;BME280;22989;55.998;37.212;2023-04-19T11:21:04;-11298.94;;;-145.39;25.14
37078;BME280;22989;55.998;37.212;2023-04-19T11:23:29;-11298.94;;;-145.39;24.92
37078;BME280;22989;55.998;37.212;2023-04-19T11:25:55;-11298.94;;;-145.39;24.92
37078;BME280;22989;55.998;37.212;2023-04-19T11:28:20;-11298.94;;;-145.39;24.64
37078;BME280;22989;55.998;37.212;2023-04-19T11:30:46;-11298.94;;;-145.39;24.52
37078;BME280;22989;55.998;37.212;2023-04-19T11:33:12;-11298.94;;;-145.39;24.92
37078;BME280;22989;55.998;37.212;2023-04-19T11:35:38;-11298.94;;;-145.39;25.01
37078;BME280;22989;55.998;37.212;2023-04-19T11:38:04;-11298.94;;;-145.39;24.76
37078;BME280;22989;55.998;37.212;2023-04-19T11:40:30;-11298.94;;;-145.39;24.66
37078;BME280;22989;55.998;37.212;2023-04-19T11:42:57;-11298.94;;;-145.39;24.63
37078;BME280;22989;55.998;37.212;2023-04-19T11:45:31;-11298.94;;;-145.39;24.60
37078;BME280;22989;55.998;37.212;2023-04-19T11:47:58;-11298.94;;;-145.39;24.64
37078;BME280;22989;55.998;37.212;2023-04-19T11:50:37;-11298.94;;;-145.39;25.10
37078;BME280;22989;55.998;37.212;2023-04-19T11:53:24;-11298.94;;;-145.39;24.96
37078;BME280;22989;55.998;37.212;2023-04-19T11:55:52;-11298.94;;;-145.39;24.69
37078;BME280;22989;55.998;37.212;2023-04-19T12:00:50;-11298.94;;;-145.39;24.53
37078;BME280;22989;55.998;37.212;2023-04-19T12:03:15;-11298.94;;;-145.39;24.51
37078;BME280;22989;55.998;37.212;2023-04-19T12:05:57;-11298.94;;;-145.39;24.71
37078;BME280;22989;55.998;37.212;2023-04-19T12:08:33;-11298.94;;;-145.39;24.50
37078;BME280;22989;55.998;37.212;2023-04-19T12:10:59;-11298.94;;;-145.39;24.43
37078;BME280;22989;55.998;37.212;2023-04-19T12:13:24;-11298.94;;;-145.39;24.50
37078;BME280;22989;55.998;37.212;2023-04-19T12:15:50;-11298.94;;;-145.39;24.33
37078;BME280;22989;55.998;37.212;2023-04-19T12:18:16;-11298.94;;;-145.39;24.35
37078;BME280;22989;55.998;37.212;2023-04-19T12:20:43;-11298.94;;;-145.39;24.92
37078;BME280;22989;55.998;37.212;2023-04-19T12:23:09;-11298.94;;;-145.39;24.40
37078;BME280;22989;55.998;37.212;2023-04-19T12:25:38;-11298.94;;;-145.39;24.37
37078;BME280;22989;55.998;37.212;2023-04-19T12:28:04;-11298.94;;;-145.39;24.15
37078;BME280;22989;55.998;37.212;2023-04-19T12:30:29;-11298.94;;;-145.39;24.12
37078;BME280;22989;55.998;37.212;2023-04-19T12:32:55;-11298.94;;;-145.39;24.13
37078;BME280;22989;55.998;37.212;2023-04-19T12:35:21;-11298.94;;;-145.39;23.96
37078;BME280;22989;55.998;37.212;2023-04-19T12:37:47;-11298.94;;;-145.39;24.20
37078;BME280;22989;55.998;37.212;2023-04-19T12:40:13;-11298.94;;;-145.39;24.21